Time;durP1;ratioP1;P1;durP2;ratioP2;P2;SDS_P1;SDS_P2;PMS_P1;PMS_P2;Temp;Humidity;BMP_temperature;BMP_pressure;BME280_temperature;BME280_humidity;BME280_pressure;Samples;Min_cycle;Max_cycle;Signal;HPM_P1;HPM_P2
2023/12/23 00:02:43;;;;;;;3.73;2.90;;;;;;;22.03;29.98;93660.63;6156224;28;109317;-56
2023/12/23 00:05:46;;;;;;;4.43;3.50;;;;;;;22.02;29.81;93653.75;6159601;28;109608;-57
2023/12/23 00:08:50;;;;;;;4.53;3.63;;;;;;;22.01;29.97;93663.63;6162895;28;109110;-57
2023/12/23 00:11:54;;;;;;;4.07;3.10;;;;;;;22.02;30.09;93643.88;6156652;28;109271;-56
2023/12/23 00:14:57;;;;;;;4.37;2.80;;;;;;;22.01;30.09;93626.34;6151642;28;108860;-56
2023/12/23 00:18:00;;;;;;;3.40;2.90;;;;;;;22.02;30.23;93614.56;6162405;28;109294;-57
2023/12/23 00:21:04;;;;;;;4.80;2.90;;;;;;;22.02;29.83;93603.91;6163198;28;110002;-56
2023/12/23 00:24:09;;;;;;;3.90;3.30;;;;;;;22.02;29.55;93595.91;6155485;28;109039;-56
2023/12/23 00:27:12;;;;;;;4.33;3.47;;;;;;;22.01;30.08;93578.38;6152831;28;110948;-56
2023/12/23 00:30:15;;;;;;;3.97;3.07;;;;;;;22.02;29.53;93587.94;6163187;28;110160;-56
2023/12/23 00:33:19;;;;;;;3.20;2.67;;;;;;;22.04;29.80;93604.34;6162577;28;110010;-56
2023/12/23 00:36:22;;;;;;;3.23;2.83;;;;;;;22.03;29.97;93608.13;6153042;28;109069;-56
2023/12/23 00:39:26;;;;;;;4.00;3.13;;;;;;;22.04;30.03;93619.56;6157073;28;109200;-57
2023/12/23 00:42:29;;;;;;;3.60;2.60;;;;;;;22.04;30.13;93617.66;6162933;28;110098;-56
2023/12/23 00:45:32;;;;;;;3.30;2.70;;;;;;;22.05;29.52;93610.44;6161630;28;109113;-58
2023/12/23 00:48:36;;;;;;;4.13;2.90;;;;;;;22.04;30.15;93608.91;6151394;28;109844;-56
2023/12/23 00:51:40;;;;;;;4.00;3.00;;;;;;;21.99;29.71;93585.91;6162611;28;109051;-58
2023/12/23 00:54:44;;;;;;;3.40;2.70;;;;;;;22.02;29.75;93587.16;6161268;28;109145;-57
2023/12/23 00:57:47;;;;;;;2.90;2.60;;;;;;;22.01;30.01;93605.03;6151988;28;109099;-57
2023/12/23 01:00:51;;;;;;;5.80;3.40;;;;;;;22.01;29.93;93605.03;6149268;28;108939;-57
2023/12/23 01:03:54;;;;;;;4.60;3.13;;;;;;;22.01;30.29;93614.88;6152274;28;108820;-56
2023/12/23 01:06:57;;;;;;;3.50;2.93;;;;;;;22.00;30.02;93603.44;6160179;28;109030;-56
2023/12/23 01:10:02;;;;;;;4.17;3.00;;;;;;;22.00;29.79;93605.34;6161426;28;110500;-54
2023/12/23 01:13:05;;;;;;;3.43;3.13;;;;;;;22.00;29.75;93606.13;6144338;28;110215;-53
2023/12/23 01:16:08;;;;;;;4.43;2.93;;;;;;;21.98;30.08;93589.69;6142302;28;110158;-54
2023/12/23 01:19:11;;;;;;;3.20;2.90;;;;;;;22.00;29.93;93582.13;6159472;28;109170;-54
2023/12/23 01:22:15;;;;;;;3.80;3.00;;;;;;;21.98;29.83;93587.03;6154630;28;108839;-56
2023/12/23 01:25:20;;;;;;;3.47;2.80;;;;;;;22.00;29.63;93549.41;6158262;28;109106;-60
2023/12/23 01:28:23;;;;;;;3.17;2.60;;;;;;;21.99;29.94;93553.97;6144946;28;109125;-54
2023/12/23 01:31:26;;;;;;;2.87;2.57;;;;;;;22.00;29.87;93547.50;6166058;28;109128;-54
2023/12/23 01:34:29;;;;;;;3.40;2.80;;;;;;;22.00;29.87;93552.06;6150075;28;109931;-54
2023/12/23 01:37:32;;;;;;;3.40;2.70;;;;;;;21.97;30.12;93502.94;6162145;28;109229;-54
2023/12/23 01:40:37;;;;;;;3.80;2.80;;;;;;;21.99;29.61;93499.91;6143945;28;109122;-53
2023/12/23 01:43:40;;;;;;;3.47;2.50;;;;;;;21.98;29.67;93493.03;6154543;28;109138;-54
2023/12/23 01:46:43;;;;;;;3.07;2.40;;;;;;;21.98;29.71;93472.50;6141995;28;110151;-54
2023/12/23 01:49:47;;;;;;;3.80;3.00;;;;;;;22.00;29.95;93496.91;6161366;28;109614;-53
2023/12/23 01:52:54;;;;;;;3.70;2.63;;;;;;;21.99;29.63;93510.56;6160079;28;108987;-54
2023/12/23 01:55:59;;;;;;;3.70;2.60;;;;;;;22.00;29.55;93506.78;6155398;28;109023;-54
2023/12/23 01:59:03;;;;;;;3.67;2.50;;;;;;;21.99;29.61;93516.66;6155401;28;110157;-62
2023/12/23 02:02:07;;;;;;;3.20;2.57;;;;;;;22.00;29.61;93506.78;6159904;28;109142;-55
2023/12/23 02:05:11;;;;;;;3.00;2.00;;;;;;;21.99;30.19;93475.94;6158296;28;108843;-53
2023/12/23 02:08:15;;;;;;;2.90;2.30;;;;;;;21.99;29.65;93479.38;6130260;28;110003;-54
2023/12/23 02:11:29;;;;;;;4.33;2.30;;;;;;;21.99;30.04;93516.66;6161306;28;108731;-54
2023/12/23 02:14:37;;;;;;;3.90;2.50;;;;;;;21.97;29.95;93508.25;6151033;28;110018;-56
2023/12/23 02:17:40;;;;;;;2.57;2.10;;;;;;;21.98;29.64;93495.72;6160582;28;110210;-54
2023/12/23 02:20:43;;;;;;;3.00;2.57;;;;;;;21.97;30.17;93515.47;6149680;28;109620;-61
2023/12/23 02:23:47;;;;;;;2.57;2.10;;;;;;;21.98;29.56;93501.03;6160320;28;110984;-61
2023/12/23 02:26:59;;;;;;;3.70;2.53;;;;;;;21.96;29.81;93517.34;6160686;28;109460;-61
2023/12/23 02:30:03;;;;;;;2.97;2.37;;;;;;;21.98;29.59;93539.09;6143377;28;109291;-60
2023/12/23 02:33:06;;;;;;;3.00;2.67;;;;;;;21.97;29.45;93512.81;6144224;28;109288;-61
2023/12/23 02:36:10;;;;;;;3.00;2.50;;;;;;;21.95;29.51;93502.50;6160338;28;109151;-61
2023/12/23 02:39:14;;;;;;;2.83;2.30;;;;;;;21.96;29.59;93479.28;6160017;28;109201;-60
2023/12/23 02:42:17;;;;;;;2.97;2.20;;;;;;;21.96;30.00;93505.94;6148531;28;109172;-60
2023/12/23 02:45:20;;;;;;;2.37;2.03;;;;;;;21.96;30.02;93493.38;6160432;28;109147;-61
2023/12/23 02:48:23;;;;;;;2.80;2.10;;;;;;;21.97;29.72;93512.81;6159878;28;110058;-63
2023/12/23 02:51:26;;;;;;;2.43;1.93;;;;;;;21.95;29.87;93489.19;6158807;28;109059;-63
2023/12/23 02:54:31;;;;;;;2.60;2.00;;;;;;;21.94;29.67;93462.88;6149812;28;110894;-61
2023/12/23 02:57:34;;;;;;;2.70;2.13;;;;;;;21.92;29.83;93443.81;6160282;28;109388;-60
2023/12/23 03:00:37;;;;;;;2.63;1.90;;;;;;;21.96;29.68;93450.78;6160616;28;110231;-61
2023/12/23 03:03:40;;;;;;;2.20;1.90;;;;;;;21.96;29.65;93464.09;6158085;28;109058;-60
2023/12/23 03:06:43;;;;;;;3.03;2.13;;;;;;;21.94;29.25;93442.34;6135842;28;109181;-59
2023/12/23 03:09:48;;;;;;;2.73;2.00;;;;;;;21.95;29.32;93462.53;6149517;28;109111;-60
2023/12/23 03:12:51;;;;;;;2.50;2.30;;;;;;;21.92;29.49;93494.41;6159479;28;109071;-60
2023/12/23 03:15:54;;;;;;;2.47;1.93;;;;;;;21.96;29.43;93498.72;6152602;28;111006;-57
2023/12/23 03:18:57;;;;;;;2.13;1.93;;;;;;;21.94;29.95;93473.53;6155743;28;111711;-61
2023/12/23 03:22:00;;;;;;;2.57;1.80;;;;;;;21.95;29.38;93467.88;6160444;28;110408;-62
2023/12/23 03:25:05;;;;;;;3.33;2.10;;;;;;;21.96;29.34;93508.59;6159877;28;109280;-61
2023/12/23 03:28:08;;;;;;;3.30;2.00;;;;;;;21.92;29.23;93489.88;6148074;28;110414;-61
2023/12/23 03:31:11;;;;;;;2.67;1.90;;;;;;;21.92;29.35;93473.88;6155914;28;110200;-61
2023/12/23 03:34:15;;;;;;;2.30;1.80;;;;;;;21.92;29.91;93470.44;6159556;28;109450;-59
2023/12/23 03:37:18;;;;;;;2.07;1.70;;;;;;;21.93;29.84;93488.75;6159889;28;109215;-66
2023/12/23 03:40:22;;;;;;;2.53;1.67;;;;;;;21.92;29.25;93484.53;6148453;28;109902;-61
2023/12/23 03:43:25;;;;;;;2.40;1.80;;;;;;;21.93;29.35;93472.78;6137141;28;109159;-60
2023/12/23 03:46:28;;;;;;;2.40;1.80;;;;;;;21.92;29.75;93463.22;6161077;28;109277;-62
2023/12/23 03:49:31;;;;;;;2.00;1.60;;;;;;;21.94;29.71;93470.88;6160683;28;109295;-60
2023/12/23 03:52:34;;;;;;;2.33;1.57;;;;;;;21.92;29.31;93463.22;6150845;28;110110;-60
2023/12/23 03:55:39;;;;;;;4.10;1.90;;;;;;;21.90;29.24;93456.72;6145737;28;109138;-63
2023/12/23 03:58:42;;;;;;;2.30;1.57;;;;;;;21.92;29.43;93447.25;6141291;28;110061;-60
2023/12/23 04:01:45;;;;;;;2.07;1.77;;;;;;;21.92;29.25;93462.47;6152775;28;109349;-59
2023/12/23 04:04:49;;;;;;;2.37;1.60;;;;;;;21.90;29.38;93446.06;6161082;28;108675;-60
2023/12/23 04:07:52;;;;;;;2.97;1.70;;;;;;;21.91;29.25;93437.72;6163212;28;109478;-60
2023/12/23 04:10:56;;;;;;;2.50;1.90;;;;;;;21.89;29.56;93423.97;6163424;28;109273;-60
2023/12/23 04:13:59;;;;;;;3.13;1.50;;;;;;;21.89;29.35;93429.31;6150895;28;110316;-61
2023/12/23 04:17:03;;;;;;;1.90;1.40;;;;;;;21.91;29.55;93413.75;6163400;28;110327;-61
2023/12/23 04:20:07;;;;;;;2.00;1.80;;;;;;;21.91;29.40;93434.28;6178197;28;109699;-61
2023/12/23 04:23:10;;;;;;;2.60;1.77;;;;;;;21.92;29.45;93425.94;6187699;28;109270;-60
2023/12/23 04:26:14;;;;;;;2.70;1.60;;;;;;;21.93;29.18;93446.13;6154615;28;109090;-61
2023/12/23 04:29:18;;;;;;;2.30;1.67;;;;;;;21.94;29.53;93484.19;6161671;28;110086;-60
2023/12/23 04:32:21;;;;;;;1.90;1.40;;;;;;;21.94;29.41;93445.03;6160941;28;109633;-61
2023/12/23 04:35:24;;;;;;;1.97;1.50;;;;;;;21.94;29.47;93455.66;6154219;28;109288;-61
2023/12/23 04:38:27;;;;;;;2.50;1.40;;;;;;;21.92;29.63;93438.50;6158644;28;110057;-61
2023/12/23 04:41:32;;;;;;;2.40;1.80;;;;;;;21.94;29.60;93429.03;6156285;28;109795;-59
2023/12/23 04:44:35;;;;;;;2.43;1.47;;;;;;;21.91;29.08;93424.41;6180887;28;109207;-57
2023/12/23 04:47:38;;;;;;;1.97;1.60;;;;;;;21.94;29.41;93421.06;6152268;28;109173;-57
2023/12/23 04:50:41;;;;;;;2.07;1.60;;;;;;;21.95;28.95;93433.25;6164007;28;109909;-57
2023/12/23 04:53:44;;;;;;;1.90;1.43;;;;;;;21.95;29.58;93427.91;6167911;28;110127;-58
2023/12/23 04:56:49;;;;;;;2.27;1.50;;;;;;;21.95;29.57;93443.91;6181199;28;109398;-56
2023/12/23 04:59:52;;;;;;;2.03;1.50;;;;;;;21.96;29.13;93431.34;6168444;28;110563;-57
2023/12/23 05:02:55;;;;;;;1.80;1.30;;;;;;;21.96;29.48;93480.06;6161092;28;109280;-58
2023/12/23 05:05:58;;;;;;;1.97;1.40;;;;;;;21.95;29.57;93459.88;6149255;28;109175;-57
2023/12/23 05:09:01;;;;;;;1.40;1.10;;;;;;;21.91;29.15;93471.56;6133897;28;110062;-56
2023/12/23 05:12:07;;;;;;;2.43;1.50;;;;;;;21.97;29.40;93516.25;6139780;28;108840;-57
2023/12/23 05:15:10;;;;;;;1.80;1.40;;;;;;;21.96;29.59;93511.25;6147778;28;109120;-57
2023/12/23 05:18:14;;;;;;;1.60;1.10;;;;;;;21.95;28.93;93505.16;6149644;28;109402;-57
2023/12/23 05:21:17;;;;;;;2.73;1.53;;;;;;;21.96;29.29;93521.91;6145072;28;110211;-56
2023/12/23 05:24:20;;;;;;;2.00;1.27;;;;;;;21.97;29.24;93523.47;6159574;28;110331;-57
2023/12/23 05:27:24;;;;;;;1.87;1.20;;;;;;;21.97;29.46;93512.81;6161430;28;109132;-57
2023/12/23 05:30:27;;;;;;;2.37;1.47;;;;;;;21.96;29.08;93512.03;6160722;28;109257;-58
2023/12/23 05:33:30;;;;;;;2.00;1.20;;;;;;;21.96;29.22;93506.72;6148755;28;109860;-58
2023/12/23 05:36:34;;;;;;;1.60;1.20;;;;;;;21.98;29.02;93506.34;6159832;28;110101;-57
2023/12/23 05:39:38;;;;;;;2.53;1.30;;;;;;;21.97;29.07;93512.81;6161295;28;109114;-57
2023/12/23 05:42:42;;;;;;;1.90;1.20;;;;;;;21.98;29.36;93499.13;6161700;28;109030;-57
2023/12/23 05:45:45;;;;;;;1.77;0.83;;;;;;;21.98;29.52;93506.34;6136750;28;109476;-57
2023/12/23 05:48:48;;;;;;;1.70;1.20;;;;;;;21.99;29.44;93506.00;6142013;28;110464;-57
2023/12/23 05:51:53;;;;;;;1.43;1.00;;;;;;;21.99;29.45;93503.34;6160982;28;110050;-59
2023/12/23 05:54:57;;;;;;;1.80;1.30;;;;;;;21.97;29.32;93481.63;6153204;28;110339;-62
2023/12/23 05:58:02;;;;;;;1.93;1.30;;;;;;;22.00;29.53;93522.78;6141062;28;108901;-62
2023/12/23 06:01:06;;;;;;;2.00;1.30;;;;;;;21.99;29.24;93507.91;6150642;28;108927;-61
2023/12/23 06:04:09;;;;;;;1.40;1.00;;;;;;;21.99;29.00;93527.31;6160197;28;110356;-60
2023/12/23 06:07:13;;;;;;;2.03;1.30;;;;;;;21.98;29.56;93535.66;6151291;28;111125;-61
2023/12/23 06:10:16;;;;;;;1.60;1.10;;;;;;;21.99;29.38;93514.00;6156136;28;109258;-62
2023/12/23 06:13:21;;;;;;;1.70;1.10;;;;;;;21.99;29.20;93513.22;6161238;28;109081;-61
2023/12/23 06:16:24;;;;;;;1.50;1.00;;;;;;;21.99;29.31;93521.22;6157360;28;108910;-60
2023/12/23 06:19:27;;;;;;;1.70;1.27;;;;;;;22.00;29.46;93522.78;6145389;28;109303;-58
2023/12/23 06:22:30;;;;;;;1.80;1.30;;;;;;;22.00;29.38;93542.19;6135810;28;109071;-60
2023/12/23 06:25:33;;;;;;;2.20;1.10;;;;;;;22.00;29.13;93558.16;6159735;28;109156;-61
2023/12/23 06:28:38;;;;;;;3.23;1.03;;;;;;;22.00;29.11;93568.81;6155938;28;109240;-66
2023/12/23 06:31:41;;;;;;;1.80;1.20;;;;;;;21.98;29.51;93535.66;6150043;28;109015;-60
2023/12/23 06:34:44;;;;;;;1.80;1.30;;;;;;;22.00;29.54;93523.53;6140916;28;109533;-62
2023/12/23 06:37:47;;;;;;;2.57;1.40;;;;;;;21.98;28.99;93531.09;6159803;28;109123;-60
2023/12/23 06:40:50;;;;;;;2.40;1.40;;;;;;;21.96;29.49;93528.00;6147786;28;109108;-60
2023/12/23 06:43:55;;;;;;;2.43;1.30;;;;;;;21.98;29.53;93512.47;6160982;28;110174;-61
2023/12/23 06:46:58;;;;;;;5.50;1.67;;;;;;;21.91;29.85;93503.53;6159217;28;109036;-61
2023/12/23 06:50:01;;;;;;;3.20;1.87;;;;;;;21.85;29.90;93511.00;6159648;28;110391;-61
2023/12/23 06:53:05;;;;;;;3.73;1.83;;;;;;;21.89;30.04;93524.41;6150651;28;109775;-60
2023/12/23 06:56:08;;;;;;;2.40;1.83;;;;;;;21.86;30.04;93536.50;6159026;28;109366;-61
2023/12/23 06:59:13;;;;;;;3.20;2.23;;;;;;;21.89;30.73;93546.47;6156640;28;109116;-61
2023/12/23 07:02:16;;;;;;;4.50;2.20;;;;;;;21.97;30.33;93542.88;6150962;28;110336;-55
2023/12/23 07:05:19;;;;;;;3.80;2.00;;;;;;;21.98;29.98;93538.31;6146057;28;109986;-55
2023/12/23 07:08:22;;;;;;;3.17;2.27;;;;;;;21.95;30.80;93553.09;6160080;28;110114;-55
2023/12/23 07:11:26;;;;;;;2.77;2.37;;;;;;;21.97;30.89;93537.53;6159513;28;109084;-55
2023/12/23 07:14:30;;;;;;;5.43;2.70;;;;;;;21.94;31.20;93583.50;6152226;28;109107;-57
2023/12/23 07:17:33;;;;;;;7.47;2.80;;;;;;;21.89;31.02;93573.13;6153509;28;110206;-55
2023/12/23 07:20:44;;;;;;;8.03;2.90;;;;;;;21.93;30.87;93581.97;6159498;28;109560;-56
2023/12/23 07:23:47;;;;;;;5.33;3.10;;;;;;;21.95;30.97;93571.75;6157253;28;109186;-56
2023/12/23 07:26:51;;;;;;;5.00;2.90;;;;;;;21.96;31.59;93564.53;6142233;28;110137;-57
2023/12/23 07:29:55;;;;;;;4.07;2.80;;;;;;;21.92;31.68;93572.44;6158823;28;109115;-56
2023/12/23 07:32:58;;;;;;;4.00;2.83;;;;;;;21.95;31.14;93569.09;6152477;28;108873;-56
2023/12/23 07:36:02;;;;;;;4.00;3.00;;;;;;;21.94;31.46;93572.84;6161285;28;110457;-63
2023/12/23 07:39:05;;;;;;;5.40;2.70;;;;;;;21.96;31.58;93593.81;6151303;28;109553;-59
2023/12/23 07:42:08;;;;;;;6.90;2.90;;;;;;;21.95;31.83;93594.94;6162428;28;109240;-55
2023/12/23 07:45:13;;;;;;;4.50;2.87;;;;;;;21.90;32.12;93608.50;6162365;28;108895;-56
2023/12/23 07:48:16;;;;;;;4.50;2.70;;;;;;;21.90;32.19;93603.97;6157795;28;109462;-55
2023/12/23 07:51:20;;;;;;;6.70;2.50;;;;;;;21.91;31.83;93594.84;6156924;28;110102;-57
2023/12/23 07:54:24;;;;;;;3.23;2.60;;;;;;;21.89;32.36;93580.31;6140694;28;110516;-55
2023/12/23 07:57:27;;;;;;;7.60;4.20;;;;;;;21.56;31.52;93583.97;6153674;28;109128;-56
2023/12/23 08:00:31;;;;;;;7.23;3.67;;;;;;;21.54;31.19;93620.03;6153170;28;109142;-55
2023/12/23 08:03:34;;;;;;;9.27;4.00;;;;;;;21.54;31.10;93617.38;6158815;28;109993;-55
2023/12/23 08:06:37;;;;;;;7.70;3.90;;;;;;;21.52;30.53;93631.78;6160163;28;109650;-55
2023/12/23 08:09:41;;;;;;;5.70;3.83;;;;;;;21.57;30.68;93653.94;6163140;28;109129;-60
2023/12/23 08:12:44;;;;;;;4.67;3.77;;;;;;;21.63;30.61;93649.94;6153471;28;110071;-61
2023/12/23 08:15:48;;;;;;;7.20;3.87;;;;;;;21.86;30.11;93648.38;6163244;28;110322;-62
2023/12/23 08:18:52;;;;;;;6.50;3.40;;;;;;;22.08;31.53;93639.84;6162915;28;109215;-61
2023/12/23 08:21:55;;;;;;;8.83;3.53;;;;;;;21.95;32.18;93643.66;6162871;28;109173;-60
2023/12/23 08:24:58;;;;;;;7.47;3.70;;;;;;;21.79;31.98;93650.78;6151141;28;109306;-61
2023/12/23 08:28:01;;;;;;;8.50;3.67;;;;;;;21.84;31.62;93671.09;6162160;28;109284;-66
2023/12/23 08:31:06;;;;;;;6.43;3.40;;;;;;;21.83;32.04;93666.88;6161039;28;109261;-62
2023/12/23 08:34:10;;;;;;;6.93;3.80;;;;;;;21.88;31.89;93659.44;6154430;28;110226;-65
2023/12/23 08:37:13;;;;;;;4.23;3.40;;;;;;;21.94;32.17;93674.06;6155070;28;110586;-61
2023/12/23 08:40:16;;;;;;;4.00;3.37;;;;;;;21.99;31.91;93713.78;6161290;28;109120;-60
2023/12/23 08:43:19;;;;;;;6.40;3.40;;;;;;;21.95;32.62;93739.53;6159856;28;109173;-60
2023/12/23 08:46:23;;;;;;;6.93;3.77;;;;;;;21.92;33.26;93777.50;6153304;28;110133;-60
2023/12/23 08:49:26;;;;;;;11.27;4.23;;;;;;;21.88;32.94;93751.88;6159424;28;109498;-60
2023/12/23 08:52:29;;;;;;;4.87;3.60;;;;;;;21.79;33.61;93774.03;6157013;28;109131;-59
2023/12/23 08:55:32;;;;;;;7.60;3.10;;;;;;;21.76;33.31;93772.06;6154723;28;109084;-62
2023/12/23 08:58:35;;;;;;;6.63;3.27;;;;;;;21.79;32.82;93784.69;6151960;28;109219;-60
2023/12/23 09:01:40;;;;;;;4.50;3.07;;;;;;;21.77;32.70;93800.22;6161661;28;110117;-61
2023/12/23 09:04:43;;;;;;;6.97;3.47;;;;;;;21.72;33.01;93811.13;6161978;28;109042;-62
2023/12/23 09:07:46;;;;;;;7.23;3.17;;;;;;;21.70;32.52;93825.88;6156531;28;109084;-60
2023/12/23 09:10:50;;;;;;;5.57;2.50;;;;;;;21.66;32.36;93825.75;6156223;28;109566;-59
2023/12/23 09:13:53;;;;;;;4.10;2.57;;;;;;;21.69;32.07;93821.66;6157846;28;109979;-62
2023/12/23 09:16:58;;;;;;;4.43;2.90;;;;;;;21.75;31.95;93842.41;6161857;28;110171;-61
2023/12/23 09:20:04;;;;;;;4.90;2.77;;;;;;;21.81;31.81;93845.59;6144128;28;109047;-60
2023/12/23 09:23:07;;;;;;;4.03;2.70;;;;;;;21.83;31.88;93843.41;6160730;28;109025;-56
2023/12/23 09:26:11;;;;;;;5.17;2.90;;;;;;;21.87;32.98;93844.31;6159245;28;110006;-56
2023/12/23 09:29:14;;;;;;;9.60;2.60;;;;;;;21.85;33.08;93856.41;6147474;28;109279;-56
2023/12/23 09:32:18;;;;;;;5.57;3.20;;;;;;;21.80;33.21;93879.44;6149314;28;110865;-57
2023/12/23 09:35:21;;;;;;;6.30;2.60;;;;;;;21.77;33.27;93892.66;6159505;28;109038;-60
2023/12/23 09:38:25;;;;;;;5.77;2.90;;;;;;;21.76;33.37;93888.44;6158179;28;109105;-56
2023/12/23 09:41:28;;;;;;;6.63;3.43;;;;;;;21.74;33.00;93882.66;6157929;28;110106;-56
2023/12/23 09:44:31;;;;;;;4.90;2.30;;;;;;;21.74;32.76;93906.63;6146454;28;109449;-56
2023/12/23 09:47:35;;;;;;;8.10;2.67;;;;;;;21.73;33.10;93911.19;6161470;28;109111;-56
2023/12/23 09:50:39;;;;;;;4.70;3.00;;;;;;;21.71;32.59;93933.94;6159669;28;109588;-56
2023/12/23 09:53:46;;;;;;;2.90;2.00;;;;;;;21.32;32.28;93972.50;6154964;28;110161;-56
2023/12/23 09:56:51;;;;;;;3.43;2.50;;;;;;;21.27;32.24;93954.06;6160350;28;110188;-55
2023/12/23 09:59:55;;;;;;;2.23;2.00;;;;;;;21.47;32.25;93985.19;6161195;28;109475;-55
2023/12/23 10:03:00;;;;;;;3.77;2.30;;;;;;;21.57;32.64;93989.34;6160746;28;109229;-56
2023/12/23 10:06:03;;;;;;;4.27;2.50;;;;;;;21.72;32.31;93994.06;6148506;28;109571;-55
2023/12/23 10:09:09;;;;;;;3.10;2.30;;;;;;;21.87;32.50;93996.13;6159947;28;110181;-56
2023/12/23 10:12:12;;;;;;;3.43;1.90;;;;;;;21.88;32.77;94005.69;6160582;28;109320;-55
2023/12/23 10:15:16;;;;;;;2.63;2.17;;;;;;;21.99;32.88;94004.13;6161515;28;109600;-55
2023/12/23 10:18:20;;;;;;;7.97;2.30;;;;;;;21.97;32.84;94010.91;6151400;28;110374;-55
2023/12/23 10:21:25;;;;;;;3.67;2.43;;;;;;;21.95;32.90;94045.84;6161013;28;109095;-55
2023/12/23 10:24:28;;;;;;;4.70;2.20;;;;;;;21.96;32.95;94051.97;6161010;28;109261;-55
2023/12/23 10:27:33;;;;;;;4.03;2.23;;;;;;;21.98;33.07;94061.19;6154834;28;109154;-55
2023/12/23 10:30:40;;;;;;;5.80;2.00;;;;;;;21.95;33.61;94072.50;6154569;28;109295;-60
2023/12/23 10:33:47;;;;;;;3.80;2.23;;;;;;;21.87;33.01;94069.94;6160105;28;108954;-55
2023/12/23 10:36:53;;;;;;;2.50;2.00;;;;;;;21.91;33.53;94073.47;6161116;28;110162;-57
2023/12/23 10:40:06;;;;;;;2.83;1.90;;;;;;;21.92;33.28;94072.38;6149269;28;109385;-57
2023/12/23 10:43:10;;;;;;;3.90;1.93;;;;;;;21.99;33.65;94085.94;6160878;28;109328;-57
2023/12/23 10:46:15;;;;;;;5.17;2.03;;;;;;;22.14;34.35;94093.31;6160092;28;109112;-58
2023/12/23 10:49:22;;;;;;;5.03;2.03;;;;;;;22.07;33.83;94098.41;6158107;28;109285;-58
2023/12/23 10:52:27;;;;;;;6.53;2.23;;;;;;;22.02;33.52;94111.94;6149874;28;108812;-56
2023/12/23 10:55:32;;;;;;;6.23;2.53;;;;;;;21.94;33.51;94108.22;6163804;28;109303;-57
2023/12/23 10:58:36;;;;;;;4.40;1.93;;;;;;;21.90;34.17;94098.56;6159294;28;109154;-57
2023/12/23 11:01:40;;;;;;;6.77;2.03;;;;;;;21.93;33.57;94093.34;6162105;28;109368;-56
2023/12/23 11:04:48;;;;;;;5.00;2.07;;;;;;;21.97;33.41;94104.13;6149266;28;109105;-59
2023/12/23 11:07:54;;;;;;;3.57;2.10;;;;;;;21.99;33.50;94093.91;6156127;28;109036;-57
2023/12/23 11:11:06;;;;;;;5.50;2.20;;;;;;;22.01;33.57;94084.53;6167742;28;109265;-58
2023/12/23 11:14:10;;;;;;;4.60;2.20;;;;;;;22.18;34.06;94083.56;6154110;28;109130;-58
2023/12/23 11:17:24;;;;;;;3.20;1.70;;;;;;;22.16;33.32;94082.31;6167730;28;109360;-57
2023/12/23 11:20:49;;;;;;;4.70;1.60;;;;;;;22.13;33.16;94080.31;6166546;28;109445;-58
2023/12/23 11:23:53;;;;;;;3.30;1.60;;;;;;;22.10;33.75;94074.53;6166482;28;109827;-57
2023/12/23 11:26:59;;;;;;;4.40;1.77;;;;;;;22.08;33.61;94066.09;6159574;28;109808;-58
2023/12/23 11:30:04;;;;;;;3.77;1.50;;;;;;;22.07;33.41;94082.41;6155734;28;109214;-58
2023/12/23 11:33:08;;;;;;;3.57;1.30;;;;;;;22.04;33.71;94075.88;6167194;28;109102;-57
2023/12/23 11:36:13;;;;;;;4.93;1.70;;;;;;;22.05;34.20;94074.75;6159167;28;110024;-57
2023/12/23 11:39:17;;;;;;;3.80;1.50;;;;;;;22.03;34.34;94081.53;6166908;28;109232;-57
2023/12/23 11:42:21;;;;;;;5.83;1.40;;;;;;;22.01;34.51;94067.72;6166397;28;109279;-57
2023/12/23 11:45:24;;;;;;;4.17;1.60;;;;;;;22.05;34.07;94079.31;6166377;28;109428;-56
2023/12/23 11:48:27;;;;;;;5.43;1.40;;;;;;;22.10;34.07;94061.22;6164973;28;109858;-57
2023/12/23 11:51:32;;;;;;;3.40;1.67;;;;;;;22.16;34.04;94043.13;6173851;28;110213;-57
2023/12/23 11:54:35;;;;;;;3.73;1.30;;;;;;;22.19;35.08;94063.03;6171107;28;110230;-57
2023/12/23 11:57:39;;;;;;;4.43;1.47;;;;;;;22.19;34.75;94052.38;6166412;28;109157;-61
2023/12/23 12:00:42;;;;;;;2.30;1.47;;;;;;;22.19;35.35;94063.03;6150250;28;109274;-58
2023/12/23 12:03:48;;;;;;;2.77;1.50;;;;;;;22.11;35.18;94046.78;6167563;28;109196;-57
2023/12/23 12:06:52;;;;;;;2.60;1.67;;;;;;;22.09;34.80;94054.34;6164228;28;109427;-56
2023/12/23 12:09:56;;;;;;;2.23;1.17;;;;;;;22.08;34.83;94055.44;6157260;28;109335;-56
2023/12/23 12:12:59;;;;;;;2.00;1.20;;;;;;;22.04;34.76;94056.44;6159970;28;110042;-56
2023/12/23 12:16:02;;;;;;;3.23;1.10;;;;;;;22.05;34.86;94058.00;6163166;28;109116;-57
2023/12/23 12:19:05;;;;;;;4.73;1.57;;;;;;;22.16;34.58;94058.34;6162955;28;110080;-55
2023/12/23 12:22:10;;;;;;;10.20;1.53;;;;;;;22.47;34.01;94063.16;6153065;28;109039;-56
2023/12/23 12:25:14;;;;;;;8.03;1.60;;;;;;;22.59;34.07;94065.88;6162779;28;109170;-55
2023/12/23 12:28:17;;;;;;;6.20;1.17;;;;;;;22.65;34.07;94048.53;6161584;28;110126;-55
2023/12/23 12:31:21;;;;;;;3.00;1.60;;;;;;;22.45;34.28;94042.19;6161043;28;110120;-55
2023/12/23 12:34:24;;;;;;;3.40;1.20;;;;;;;22.66;33.70;94050.09;6152840;28;110292;-55
2023/12/23 12:37:29;;;;;;;3.20;1.13;;;;;;;22.77;34.23;94050.44;6162347;28;109317;-55
2023/12/23 12:40:34;;;;;;;1.77;1.10;;;;;;;22.83;33.90;94065.88;6161760;28;109284;-55
2023/12/23 12:43:41;;;;;;;2.77;1.30;;;;;;;22.80;34.20;94069.22;6150165;28;109185;-58
2023/12/23 12:46:44;;;;;;;3.87;1.00;;;;;;;22.72;34.42;94066.69;6151491;28;109717;-56
2023/12/23 12:49:47;;;;;;;4.47;1.40;;;;;;;22.66;34.21;94074.88;6161166;28;110119;-57
2023/12/23 12:53:09;;;;;;;3.83;1.10;;;;;;;22.61;33.82;94075.09;6162393;28;109144;-63
2023/12/23 12:56:14;;;;;;;4.87;1.10;;;;;;;22.46;34.08;94078.38;6151479;28;109138;-60
2023/12/23 12:59:17;;;;;;;5.00;1.20;;;;;;;22.72;34.12;94085.34;6155085;28;110102;-60
2023/12/23 13:02:22;;;;;;;4.37;1.30;;;;;;;22.77;34.06;94088.56;6161617;28;109895;-58
2023/12/23 13:05:25;;;;;;;2.50;1.00;;;;;;;22.83;34.08;94094.44;6160764;28;109003;-58
2023/12/23 13:08:30;;;;;;;4.33;1.10;;;;;;;22.84;34.03;94109.34;6151021;28;110074;-58
2023/12/23 13:11:33;;;;;;;2.90;0.90;;;;;;;22.86;33.89;94110.59;6150128;28;109224;-60
2023/12/23 13:14:37;;;;;;;4.17;1.07;;;;;;;22.88;34.38;94115.59;6157048;28;109130;-60
2023/12/23 13:17:40;;;;;;;3.13;1.13;;;;;;;22.82;34.22;94122.22;6155068;28;109207;-63
2023/12/23 13:20:43;;;;;;;3.20;1.20;;;;;;;22.78;34.78;94113.34;6147954;28;109158;-60
2023/12/23 13:23:49;;;;;;;2.20;1.20;;;;;;;22.82;34.55;94111.56;6161438;28;109055;-59
2023/12/23 13:26:53;;;;;;;2.50;1.10;;;;;;;22.79;34.15;94096.22;6161807;28;109438;-60
2023/12/23 13:29:56;;;;;;;3.20;0.97;;;;;;;22.81;34.53;94097.44;6151217;28;109467;-59
2023/12/23 13:33:00;;;;;;;3.30;1.10;;;;;;;22.80;34.47;94098.56;6162865;28;109232;-59
2023/12/23 13:36:04;;;;;;;1.67;0.80;;;;;;;22.84;34.48;94088.00;6163002;28;109112;-59
2023/12/23 13:39:10;;;;;;;3.30;1.10;;;;;;;22.87;34.49;94104.13;6161362;28;109082;-60
2023/12/23 13:42:14;;;;;;;1.70;0.80;;;;;;;22.91;34.29;94104.25;6151111;28;109716;-59
2023/12/23 13:45:17;;;;;;;2.53;0.97;;;;;;;22.90;34.44;94108.81;6161430;28;109450;-60
2023/12/23 13:48:22;;;;;;;4.47;1.00;;;;;;;22.91;34.64;94102.34;6154300;28;109120;-59
2023/12/23 13:51:25;;;;;;;1.90;0.97;;;;;;;22.97;33.99;94108.22;6157809;28;109088;-58
2023/12/23 13:54:30;;;;;;;2.07;0.80;;;;;;;22.93;34.22;94116.13;6150267;28;109270;-58
2023/12/23 13:57:33;;;;;;;1.83;0.97;;;;;;;22.95;34.55;94111.25;6158540;28;109302;-58
2023/12/23 14:00:36;;;;;;;3.73;0.87;;;;;;;22.97;34.70;94108.22;6157450;28;108977;-62
2023/12/23 14:03:39;;;;;;;1.70;0.80;;;;;;;22.93;34.53;94110.78;6150856;28;110588;-54
2023/12/23 14:06:42;;;;;;;1.53;0.90;;;;;;;22.99;34.64;94098.00;6158217;28;109067;-56
2023/12/23 14:09:47;;;;;;;3.17;0.93;;;;;;;22.83;34.88;94087.22;6156471;28;109253;-54
2023/12/23 14:12:50;;;;;;;3.50;0.90;;;;;;;22.94;34.50;94082.22;6161150;28;110083;-55
2023/12/23 14:15:53;;;;;;;3.37;1.20;;;;;;;22.88;34.33;94079.00;6149644;28;109117;-56